Time;durP1;ratioP1;P1;durP2;ratioP2;P2;SDS_P1;SDS_P2;PMS_P1;PMS_P2;Temp;Humidity;BMP_temperature;BMP_pressure;BME280_temperature;BME280_humidity;BME280_pressure;Samples;Min_cycle;Max_cycle;Signal;HPM_P1;HPM_P2
2022/02/23 00:00:46;;;;;;;44.60;5.20;;;;;;;4.59;100.00;101176.59;4850605;29;20449;-76
2022/02/23 00:03:11;;;;;;;49.45;5.68;;;;;;;4.59;100.00;101181.81;4857227;29;20070;-76
2022/02/23 00:05:37;;;;;;;53.33;5.53;;;;;;;4.70;100.00;101185.50;4887673;29;20133;-76
2022/02/23 00:08:03;;;;;;;58.60;5.80;;;;;;;4.63;100.00;101198.03;4853151;29;20117;-75
2022/02/23 00:10:30;;;;;;;48.55;5.22;;;;;;;4.67;100.00;101195.16;4858487;29;20043;-76
2022/02/23 00:12:56;;;;;;;39.22;5.45;;;;;;;4.65;100.00;101212.63;4871392;29;20044;-77
2022/02/23 00:15:22;;;;;;;48.25;5.50;;;;;;;4.66;100.00;101218.63;4871520;29;20068;-77
2022/02/23 00:17:48;;;;;;;51.15;5.45;;;;;;;4.60;100.00;101206.88;4852714;29;20048;-76
2022/02/23 00:20:14;;;;;;;47.35;5.68;;;;;;;4.66;100.00;101235.06;4871443;29;20037;-77
2022/02/23 00:22:41;;;;;;;47.85;5.65;;;;;;;4.76;100.00;101227.50;4845834;29;20052;-77
2022/02/23 00:25:08;;;;;;;56.20;5.93;;;;;;;4.78;100.00;101240.41;4881339;29;20043;-75
2022/02/23 00:27:34;;;;;;;47.95;5.60;;;;;;;4.79;100.00;101239.50;4866293;29;20724;-79
2022/02/23 00:30:00;;;;;;;50.22;6.20;;;;;;;4.80;100.00;101247.19;4855698;29;20037;-76
2022/02/23 00:32:26;;;;;;;46.08;6.50;;;;;;;4.79;100.00;101248.13;4846619;29;20097;-76
2022/02/23 00:34:51;;;;;;;60.30;5.90;;;;;;;4.98;100.00;101252.97;4869874;29;20037;-76
2022/02/23 00:37:17;;;;;;;41.22;5.88;;;;;;;5.01;100.00;101260.59;4858931;29;20116;-77
2022/02/23 00:39:43;;;;;;;50.60;6.70;;;;;;;5.05;100.00;101266.44;4858802;29;20256;-76
2022/02/23 00:42:09;;;;;;;40.53;5.53;;;;;;;4.91;100.00;101266.47;4874979;29;20045;-75
2022/02/23 00:44:35;;;;;;;44.38;5.68;;;;;;;4.88;100.00;101275.31;4856517;29;20052;-76
2022/02/23 00:47:02;;;;;;;51.58;5.55;;;;;;;4.96;100.00;101286.03;4838214;29;20053;-75
2022/02/23 00:49:28;;;;;;;44.13;6.13;;;;;;;4.99;100.00;101290.22;4867620;29;20056;-75
2022/02/23 00:51:54;;;;;;;41.05;5.75;;;;;;;5.04;100.00;101293.34;4850899;29;20037;-76
2022/02/23 00:54:20;;;;;;;51.50;6.03;;;;;;;5.05;100.00;101295.03;4868651;29;20045;-76
2022/02/23 00:56:46;;;;;;;49.60;5.18;;;;;;;5.00;100.00;101292.72;4855878;29;20834;-76
2022/02/23 00:59:12;;;;;;;43.42;5.72;;;;;;;5.07;100.00;101306.19;4871678;29;20060;-76
2022/02/23 01:01:38;;;;;;;52.00;6.88;;;;;;;5.07;100.00;101303.56;4872065;29;20087;-76
2022/02/23 01:04:05;;;;;;;46.45;5.68;;;;;;;5.05;100.00;101308.03;4870622;29;20116;-75
2022/02/23 01:06:31;;;;;;;51.35;5.88;;;;;;;4.97;100.00;101318.94;4866080;29;20041;-75
2022/02/23 01:08:57;;;;;;;48.10;5.65;;;;;;;5.13;100.00;101317.97;4862278;29;20102;-76
2022/02/23 01:11:23;;;;;;;51.20;5.82;;;;;;;5.11;100.00;101318.03;4851179;29;20049;-75
2022/02/23 01:13:50;;;;;;;52.15;6.47;;;;;;;5.07;100.00;101320.00;4848745;29;20504;-77
2022/02/23 01:16:18;;;;;;;41.47;5.78;;;;;;;4.99;100.00;101313.59;4872480;29;20044;-75
2022/02/23 01:18:44;;;;;;;63.25;6.70;;;;;;;5.03;100.00;101322.91;4835776;29;20040;-76
2022/02/23 01:21:10;;;;;;;58.25;5.97;;;;;;;5.00;100.00;101325.69;4841701;29;20044;-75
2022/02/23 01:23:36;;;;;;;43.40;5.60;;;;;;;4.95;100.00;101330.34;4873572;29;20093;-75
2022/02/23 01:26:03;;;;;;;45.85;5.80;;;;;;;5.04;100.00;101329.75;4857765;29;20480;-76
2022/02/23 01:28:30;;;;;;;47.97;6.80;;;;;;;5.00;100.00;101325.69;4866952;29;20504;-75
2022/02/23 01:30:55;;;;;;;44.45;5.63;;;;;;;5.00;100.00;101325.69;4854289;29;20037;-76
2022/02/23 01:33:21;;;;;;;47.40;5.53;;;;;;;5.06;100.00;101349.53;4871847;29;20057;-75
2022/02/23 01:35:47;;;;;;;48.67;6.57;;;;;;;5.06;100.00;101338.28;4880433;29;20073;-76
2022/02/23 01:38:13;;;;;;;40.70;4.93;;;;;;;5.09;100.00;101345.91;4857392;29;20041;-76
2022/02/23 01:40:39;;;;;;;42.78;5.80;;;;;;;5.11;100.00;101351.84;4858372;29;20044;-76
2022/02/23 01:43:04;;;;;;;39.28;5.55;;;;;;;5.11;100.00;101343.22;4857101;29;20037;-75
2022/02/23 01:45:34;;;;;;;45.30;5.20;;;;;;;5.13;100.00;101336.16;4870557;29;20041;-77
2022/02/23 01:47:59;;;;;;;57.03;6.40;;;;;;;5.00;100.00;101346.50;4872794;29;20048;-77
2022/02/23 01:50:25;;;;;;;47.13;5.72;;;;;;;5.07;100.00;101335.59;4868552;29;20037;-76
2022/02/23 01:52:51;;;;;;;48.33;5.72;;;;;;;4.99;100.00;101348.25;4873094;29;20049;-76
2022/02/23 01:55:16;;;;;;;49.40;6.50;;;;;;;5.14;100.00;101356.00;4871940;29;20069;-76
2022/02/23 01:57:42;;;;;;;49.40;5.75;;;;;;;5.11;100.00;101361.44;4859155;29;20029;-76
2022/02/23 02:00:11;;;;;;;42.22;5.63;;;;;;;5.12;100.00;101363.91;4861101;29;20033;-77
2022/02/23 02:02:38;;;;;;;46.67;5.20;;;;;;;5.12;100.00;101363.09;4863317;29;20119;-76
2022/02/23 02:05:05;;;;;;;41.53;5.22;;;;;;;5.06;100.00;101362.53;4831090;29;20487;-76
2022/02/23 02:07:31;;;;;;;48.10;5.40;;;;;;;5.01;100.00;101367.19;4872594;29;20056;-80
2022/02/23 02:09:57;;;;;;;41.45;6.07;;;;;;;5.04;100.00;101372.19;4865035;29;20033;-77
2022/02/23 02:12:24;;;;;;;40.83;5.28;;;;;;;5.17;100.00;101368.84;4834848;29;20081;-76
2022/02/23 02:14:51;;;;;;;42.65;5.45;;;;;;;5.15;100.00;101379.34;4873242;29;20033;-76
2022/02/23 02:17:17;;;;;;;49.30;5.65;;;;;;;5.06;100.00;101378.13;4854973;29;20037;-76
2022/02/23 02:19:43;;;;;;;44.65;5.45;;;;;;;5.06;100.00;101380.72;4854465;29;20042;-76
2022/02/23 02:22:10;;;;;;;47.05;6.32;;;;;;;5.03;100.00;101398.31;4866729;29;20400;-77
2022/02/23 02:24:37;;;;;;;43.40;5.75;;;;;;;5.06;100.00;101403.31;4850222;29;20144;-77
2022/02/23 02:27:06;;;;;;;52.78;5.70;;;;;;;5.03;100.00;101408.72;4872035;29;20052;-76
2022/02/23 02:29:32;;;;;;;45.17;5.60;;;;;;;5.07;100.00;101408.41;4872876;29;20047;-77
2022/02/23 02:32:00;;;;;;;37.58;5.13;;;;;;;4.99;100.00;101415.00;4856589;29;20053;-76
2022/02/23 02:34:26;;;;;;;47.17;5.93;;;;;;;5.02;100.00;101425.22;4873546;29;20460;-76
2022/02/23 02:36:51;;;;;;;48.53;6.05;;;;;;;4.93;100.00;101431.81;4883666;29;20070;-76
2022/02/23 02:39:18;;;;;;;38.42;5.85;;;;;;;4.99;100.00;101435.81;4850631;29;20071;-75
2022/02/23 02:41:44;;;;;;;48.10;5.38;;;;;;;4.93;100.00;101444.81;4859109;29;20048;-76
2022/02/23 02:44:10;;;;;;;44.72;6.13;;;;;;;4.87;100.00;101435.63;4851736;29;20029;-76
2022/02/23 02:46:35;;;;;;;41.15;5.82;;;;;;;4.92;100.00;101452.72;4857870;29;20030;-76
2022/02/23 02:49:02;;;;;;;44.15;5.30;;;;;;;4.97;100.00;101456.72;4861553;29;20077;-75
2022/02/23 02:51:27;;;;;;;57.67;6.95;;;;;;;4.97;100.00;101456.72;4872770;29;20041;-75
2022/02/23 02:53:53;;;;;;;42.92;5.53;;;;;;;4.98;100.00;101457.56;4854573;29;20053;-76
2022/02/23 02:56:19;;;;;;;49.03;5.75;;;;;;;4.99;100.00;101460.06;4863670;29;20051;-77
2022/02/23 02:58:52;;;;;;;47.40;5.60;;;;;;;4.99;100.00;101467.00;4862051;29;20580;-74
2022/02/23 03:01:19;;;;;;;;;;;;;;;4.94;100.00;101472.50;4865164;29;20595;-76
2022/02/23 03:03:44;;;;;;;49.25;5.53;;;;;;;5.01;100.00;101479.00;4864202;29;19916;-75
2022/02/23 03:06:10;;;;;;;47.63;6.13;;;;;;;4.95;100.00;101481.13;4847697;29;20052;-76
2022/02/23 03:08:35;;;;;;;44.50;5.15;;;;;;;5.02;100.00;101496.25;4882120;29;20121;-78
2022/02/23 03:11:01;;;;;;;47.42;5.60;;;;;;;4.91;100.00;101488.25;4847924;29;20472;-77
2022/02/23 03:13:27;;;;;;;40.80;5.50;;;;;;;4.91;100.00;101500.44;4878287;29;20046;-77
2022/02/23 03:15:52;;;;;;;42.67;5.32;;;;;;;4.92;100.00;101502.13;4893486;29;20065;-77
2022/02/23 03:18:18;;;;;;;54.70;5.90;;;;;;;4.89;100.00;101500.53;4857179;29;20050;-77
2022/02/23 03:20:44;;;;;;;42.85;5.55;;;;;;;4.83;100.00;101511.28;4847190;29;20037;-77
2022/02/23 03:23:09;;;;;;;44.83;5.65;;;;;;;5.00;100.00;101518.91;4844375;29;20209;-77
2022/02/23 03:25:35;;;;;;;48.40;5.57;;;;;;;4.84;100.00;101516.41;4880806;29;20052;-76
2022/02/23 03:28:01;;;;;;;42.53;5.18;;;;;;;4.88;100.00;101525.69;4864062;29;20049;-76
2022/02/23 03:30:26;;;;;;;43.67;4.85;;;;;;;4.78;100.00;101527.13;4854937;29;20045;-76
2022/02/23 03:32:52;;;;;;;52.35;5.53;;;;;;;4.86;100.00;101522.34;4855733;29;20029;-77
2022/02/23 03:35:17;;;;;;;47.40;5.18;;;;;;;4.82;100.00;101520.00;4864609;29;20064;-76
2022/02/23 03:37:43;;;;;;;45.45;6.03;;;;;;;4.97;100.00;101521.72;4863336;29;20040;-77
2022/02/23 03:40:09;;;;;;;33.15;4.93;;;;;;;4.88;100.00;101525.69;4889920;29;20049;-77
2022/02/23 03:42:35;;;;;;;42.88;5.22;;;;;;;4.94;100.00;101534.06;4873516;29;20046;-76
2022/02/23 03:45:01;;;;;;;38.88;4.97;;;;;;;4.94;100.00;101542.69;4864106;29;20056;-77
2022/02/23 03:47:26;;;;;;;42.38;4.57;;;;;;;4.98;100.00;101543.34;4863127;29;20081;-75
2022/02/23 03:49:52;;;;;;;39.63;5.03;;;;;;;4.98;100.00;101544.19;4860335;29;20053;-76
2022/02/23 03:52:18;;;;;;;26.58;4.03;;;;;;;5.04;100.00;101556.81;4836666;29;20140;-76
2022/02/23 03:54:43;;;;;;;31.02;3.90;;;;;;;5.03;100.00;101547.34;4871815;29;20049;-76
2022/02/23 03:57:09;;;;;;;30.85;4.45;;;;;;;5.07;100.00;101559.25;4847610;29;20127;-78
2022/02/23 03:59:35;;;;;;;36.35;4.00;;;;;;;5.02;100.00;101574.25;4864673;29;20436;-76
2022/02/23 04:02:01;;;;;;;36.97;4.22;;;;;;;4.98;100.00;101567.56;4870631;29;20519;-77
2022/02/23 04:04:26;;;;;;;32.60;4.10;;;;;;;4.99;100.00;101563.22;4851425;29;20049;-77
2022/02/23 04:06:52;;;;;;;38.42;5.13;;;;;;;5.05;100.00;101578.47;4873702;29;20070;-76
2022/02/23 04:09:17;;;;;;;40.08;3.97;;;;;;;5.01;100.00;101577.81;4846604;29;20045;-76
2022/02/23 04:11:43;;;;;;;43.63;5.03;;;;;;;4.97;100.00;101584.13;4851889;29;20615;-77
2022/02/23 04:14:09;;;;;;;33.05;4.43;;;;;;;4.99;100.00;101592.66;4863211;29;20672;-77
2022/02/23 04:16:35;;;;;;;32.70;4.60;;;;;;;5.09;100.00;101594.72;4860671;29;20040;-77
2022/02/23 04:19:02;;;;;;;34.92;4.30;;;;;;;5.02;100.00;101605.47;4851169;29;20065;-77
2022/02/23 04:21:29;;;;;;;31.60;5.50;;;;;;;5.00;100.00;101607.31;4855536;29;20052;-76
2022/02/23 04:23:54;;;;;;;32.95;4.60;;;;;;;4.94;100.00;101609.47;4857452;29;20045;-78
2022/02/23 04:26:21;;;;;;;32.17;5.00;;;;;;;4.87;100.00;101604.59;4860704;29;20458;-76
2022/02/23 04:28:47;;;;;;;35.83;4.03;;;;;;;4.89;100.00;101607.13;4880944;29;20043;-76
2022/02/23 04:31:13;;;;;;;41.60;4.82;;;;;;;4.92;100.00;101611.31;4879392;29;20064;-75
2022/02/23 04:33:40;;;;;;;30.23;4.32;;;;;;;4.84;100.00;101628.19;4893585;29;20053;-77
2022/02/23 04:36:07;;;;;;;36.35;4.28;;;;;;;4.91;100.00;101628.66;4865750;29;20057;-77
2022/02/23 04:38:34;;;;;;;33.88;4.82;;;;;;;4.93;100.00;101628.56;4848911;29;20124;-74
2022/02/23 04:40:59;;;;;;;29.20;4.60;;;;;;;4.96;100.00;101636.22;4863053;29;20041;-75
2022/02/23 04:43:25;;;;;;;32.25;4.63;;;;;;;4.96;100.00;101629.25;4860477;29;20045;-76
2022/02/23 04:45:51;;;;;;;33.45;4.18;;;;;;;4.95;100.00;101624.94;4851742;29;20093;-76
2022/02/23 04:48:17;;;;;;;42.72;4.25;;;;;;;5.00;100.00;101640.31;4867181;29;20103;-76
2022/02/23 04:50:44;;;;;;;37.47;4.25;;;;;;;5.07;100.00;101654.63;4867415;29;20044;-76
2022/02/23 04:53:09;;;;;;;38.95;4.95;;;;;;;5.11;100.00;101660.50;4874749;29;20182;-77
2022/02/23 04:55:36;;;;;;;44.85;5.00;;;;;;;5.07;100.00;101657.22;4877138;29;20032;-76
2022/02/23 04:58:07;;;;;;;32.55;4.72;;;;;;;5.09;100.00;101667.56;4867052;29;20519;-76
2022/02/23 05:00:37;;;;;;;44.13;5.05;;;;;;;5.04;100.00;101671.22;4853748;29;20679;-74
2022/02/23 05:03:04;;;;;;;32.05;4.38;;;;;;;5.00;100.00;101671.50;4879957;29;20521;-75
2022/02/23 05:05:31;;;;;;;31.83;4.65;;;;;;;4.99;100.00;101656.81;4878908;29;20164;-75
2022/02/23 05:07:57;;;;;;;34.20;4.63;;;;;;;5.09;100.00;101675.34;4864705;29;20083;-76
2022/02/23 05:10:24;;;;;;;48.97;4.95;;;;;;;4.91;100.00;101666.81;4864862;29;20108;-75
2022/02/23 05:12:49;;;;;;;40.97;5.18;;;;;;;4.86;100.00;101687.91;4851089;29;20076;-77
2022/02/23 05:15:15;;;;;;;48.53;5.45;;;;;;;5.00;100.00;101705.31;4875946;29;20076;-76
2022/02/23 05:17:40;;;;;;;32.78;4.90;;;;;;;4.87;100.00;101685.19;4861659;29;20088;-76
2022/02/23 05:20:07;;;;;;;30.73;4.95;;;;;;;4.87;100.00;101695.59;4859184;29;20045;-76
2022/02/23 05:22:34;;;;;;;32.90;4.50;;;;;;;5.03;100.00;101690.38;4852680;29;20031;-75
2022/02/23 05:24:59;;;;;;;39.85;5.28;;;;;;;4.93;100.00;101699.59;4883403;29;20086;-77
2022/02/23 05:27:25;;;;;;;39.38;5.45;;;;;;;5.00;100.00;101706.13;4867531;29;20048;-76
2022/02/23 05:29:51;;;;;;;27.48;4.18;;;;;;;4.96;100.00;101715.03;4880801;29;20041;-76
2022/02/23 05:32:16;;;;;;;45.42;5.05;;;;;;;4.96;100.00;101716.81;4877464;29;20033;-77
2022/02/23 05:34:42;;;;;;;39.60;4.45;;;;;;;5.04;100.00;101723.22;4858171;29;20044;-75
2022/02/23 05:37:07;;;;;;;39.13;6.20;;;;;;;5.00;100.00;101723.50;4881726;29;20055;-76
2022/02/23 05:39:33;;;;;;;36.80;4.78;;;;;;;5.10;100.00;101740.25;4881419;29;20045;-77
2022/02/23 05:41:59;;;;;;;41.03;4.85;;;;;;;5.05;100.00;101737.94;4867572;29;20041;-77
2022/02/23 05:44:25;;;;;;;32.47;4.82;;;;;;;4.88;100.00;101725.88;4867832;29;20148;-77
2022/02/23 05:46:50;;;;;;;42.92;4.63;;;;;;;4.94;100.00;101755.06;4867352;29;20522;-77
2022/02/23 05:49:16;;;;;;;46.47;5.80;;;;;;;4.95;100.00;101760.16;4866720;29;20064;-77
2022/02/23 05:51:44;;;;;;;44.08;4.78;;;;;;;4.97;100.00;101760.94;4863568;29;20091;-76
2022/02/23 05:54:10;;;;;;;36.40;4.68;;;;;;;5.04;100.00;101759.63;4868281;29;20051;-77
2022/02/23 05:56:36;;;;;;;43.08;5.05;;;;;;;5.06;100.00;101770.78;4879045;29;20045;-77
2022/02/23 05:59:02;;;;;;;42.28;4.68;;;;;;;5.04;100.00;101777.00;4851830;29;20053;-75
2022/02/23 06:01:28;;;;;;;45.92;5.70;;;;;;;4.90;100.00;101790.78;4874765;29;20044;-77
2022/02/23 06:03:54;;;;;;;37.97;4.82;;;;;;;4.88;100.00;101782.22;4858641;29;20112;-77
2022/02/23 06:06:20;;;;;;;35.33;4.95;;;;;;;4.91;100.00;101789.00;4858498;29;20049;-76
2022/02/23 06:08:45;;;;;;;44.03;5.03;;;;;;;5.00;100.00;101788.50;4879019;29;20045;-77
2022/02/23 06:11:13;;;;;;;46.97;5.18;;;;;;;4.88;100.00;101783.06;4850410;29;20043;-76
2022/02/23 06:13:39;;;;;;;39.70;4.82;;;;;;;4.97;100.00;101801.66;4846155;29;20033;-76
2022/02/23 06:16:05;;;;;;;42.35;5.05;;;;;;;4.79;100.00;101780.13;4860150;29;20036;-76
2022/02/23 06:18:31;;;;;;;37.45;5.57;;;;;;;4.93;100.00;101794.97;4866892;29;20052;-77
2022/02/23 06:20:57;;;;;;;38.35;4.85;;;;;;;4.83;100.00;101802.44;4848945;29;20045;-77
2022/02/23 06:23:23;;;;;;;41.22;5.13;;;;;;;4.85;100.00;101808.38;4871270;29;20055;-76
2022/02/23 06:25:50;;;;;;;37.33;5.00;;;;;;;4.94;100.00;101815.69;4871425;29;20462;-77
2022/02/23 06:28:16;;;;;;;39.15;5.40;;;;;;;4.82;100.00;101825.00;4873063;29;20476;-76
2022/02/23 06:30:42;;;;;;;43.33;4.90;;;;;;;4.86;100.00;101834.31;4861027;29;20661;-76
2022/02/23 06:33:11;;;;;;;43.20;5.07;;;;;;;4.67;100.00;101833.59;4860761;29;20040;-77
2022/02/23 06:35:37;;;;;;;48.80;5.50;;;;;;;4.57;100.00;101822.84;4884129;29;20088;-76
2022/02/23 06:38:04;;;;;;;41.95;5.60;;;;;;;4.63;100.00;101847.69;4874467;29;20041;-76
2022/02/23 06:40:31;;;;;;;36.42;5.47;;;;;;;4.71;100.00;101847.28;4887687;29;20041;-75
2022/02/23 06:42:56;;;;;;;37.15;5.22;;;;;;;4.64;100.00;101851.97;4882089;29;20037;-75
2022/02/23 06:45:22;;;;;;;36.53;4.88;;;;;;;4.71;100.00;101855.94;4886261;29;20041;-77
2022/02/23 06:47:48;;;;;;;43.55;5.13;;;;;;;4.72;100.00;101860.19;4884608;29;20042;-76
2022/02/23 06:50:13;;;;;;;46.28;6.50;;;;;;;4.84;100.00;101867.34;4870207;29;20045;-75
2022/02/23 06:52:40;;;;;;;41.97;5.47;;;;;;;4.83;100.00;101864.81;4875981;29;20048;-75
2022/02/23 06:55:07;;;;;;;41.45;5.63;;;;;;;4.88;100.00;101863.66;4884384;29;20048;-74
2022/02/23 06:57:38;;;;;;;44.10;5.35;;;;;;;4.85;100.00;101862.97;4888996;29;20039;-75
2022/02/23 07:00:08;;;;;;;37.63;4.43;;;;;;;4.86;100.00;101864.69;4877938;29;20041;-76
2022/02/23 07:02:34;;;;;;;44.80;4.88;;;;;;;4.90;100.00;101873.13;4888119;29;20049;-75
2022/02/23 07:05:00;;;;;;;39.28;5.55;;;;;;;4.90;100.00;101870.53;4873295;29;20037;-75
2022/02/23 07:07:26;;;;;;;41.70;5.30;;;;;;;4.89;100.00;101874.88;4854107;29;20040;-76
2022/02/23 07:09:52;;;;;;;39.08;4.72;;;;;;;5.00;100.00;101880.34;4874109;29;20083;-76
2022/02/23 07:12:18;;;;;;;43.65;5.30;;;;;;;5.00;100.00;101884.72;4873744;29;20496;-76
2022/02/23 07:14:44;;;;;;;40.95;4.93;;;;;;;5.05;100.00;101885.31;4889663;29;20419;-76
2022/02/23 07:17:09;;;;;;;42.67;5.20;;;;;;;4.97;100.00;101888.34;4888497;29;20041;-76
2022/02/23 07:19:35;;;;;;;31.55;4.32;;;;;;;4.99;100.00;101894.28;4891289;29;20097;-74
2022/02/23 07:22:01;;;;;;;42.75;5.13;;;;;;;5.01;100.00;101891.59;4887495;29;20052;-75
2022/02/23 07:24:27;;;;;;;45.03;4.95;;;;;;;5.03;100.00;101897.56;4872905;29;20059;-77
2022/02/23 07:26:53;;;;;;;35.45;4.80;;;;;;;4.99;100.00;101890.84;4873538;29;20052;-77
2022/02/23 07:29:18;;;;;;;42.95;4.80;;;;;;;5.07;100.00;101878.28;4871881;29;20087;-75
2022/02/23 07:31:44;;;;;;;37.50;5.07;;;;;;;5.06;100.00;101895.63;4884627;29;20033;-76
2022/02/23 07:34:11;;;;;;;35.88;5.07;;;;;;;5.08;100.00;101895.53;4882098;29;20036;-76
2022/02/23 07:36:36;;;;;;;43.60;4.68;;;;;;;5.03;100.00;101898.41;4888320;29;20040;-77
2022/02/23 07:39:04;;;;;;;45.35;5.32;;;;;;;5.21;100.00;101903.53;4871611;29;20036;-77
2022/02/23 07:41:30;;;;;;;49.22;5.18;;;;;;;5.15;100.00;101903.88;4878354;29;20195;-76
2022/02/23 07:43:56;;;;;;;43.65;4.70;;;;;;;5.24;100.00;101921.59;4885043;29;20044;-76
2022/02/23 07:46:22;;;;;;;48.00;5.63;;;;;;;5.22;100.00;101919.06;4879106;29;20036;-78
2022/02/23 07:48:48;;;;;;;30.42;4.60;;;;;;;5.15;100.00;101906.47;4899627;29;20403;-77
2022/02/23 07:51:17;;;;;;;30.15;4.90;;;;;;;5.22;100.00;101931.22;4887651;29;20120;-77
2022/02/23 07:53:44;;;;;;;37.80;4.80;;;;;;;5.24;100.00;101934.59;4872779;29;20079;-77
2022/02/23 07:56:10;;;;;;;35.63;4.45;;;;;;;5.21;100.00;101938.19;4877436;29;20525;-77
2022/02/23 07:58:36;;;;;;;28.65;4.38;;;;;;;5.32;100.00;101934.19;4882339;29;20043;-77
2022/02/23 08:01:02;;;;;;;35.92;4.88;;;;;;;5.42;100.00;101946.56;4888789;29;20064;-77
2022/02/23 08:03:28;;;;;;;41.67;5.35;;;;;;;5.45;100.00;101940.38;4873543;29;20041;-76
2022/02/23 08:05:54;;;;;;;34.97;5.05;;;;;;;5.39;100.00;101925.94;4868814;29;20080;-78
2022/02/23 08:08:20;;;;;;;28.25;4.40;;;;;;;5.60;100.00;101956.94;4888473;29;20045;-77
2022/02/23 08:10:46;;;;;;;33.25;4.13;;;;;;;5.60;100.00;101944.75;4865039;29;20079;-77
2022/02/23 08:13:12;;;;;;;36.63;4.47;;;;;;;5.61;100.00;101956.84;4863539;29;20465;-77
2022/02/23 08:21:19;;;;;;;36.42;4.00;;;;;;;5.58;100.00;101959.59;4899370;29;20033;-77
2022/02/23 08:23:46;;;;;;;29.85;4.32;;;;;;;5.47;100.00;101956.75;4883252;29;20051;-75
2022/02/23 08:26:12;;;;;;;41.47;4.47;;;;;;;5.57;100.00;101973.53;4885388;29;20033;-77
2022/02/23 08:28:38;;;;;;;33.95;4.40;;;;;;;5.59;100.00;101981.25;4867714;29;20037;-77
2022/02/23 08:31:05;;;;;;;40.08;4.85;;;;;;;5.63;100.00;101978.44;4884759;29;20037;-77
2022/02/23 08:33:31;;;;;;;39.67;4.57;;;;;;;5.71;100.00;101978.00;4877960;29;20097;-76
2022/02/23 08:35:56;;;;;;;34.40;4.93;;;;;;;5.79;100.00;101990.59;4867943;29;20049;-77
2022/02/23 08:38:23;;;;;;;33.45;4.15;;;;;;;5.90;100.00;101987.41;4866142;29;20044;-75
2022/02/23 08:40:48;;;;;;;38.03;5.72;;;;;;;5.96;100.00;101985.31;4874072;29;20065;-76
2022/02/23 08:43:15;;;;;;;42.30;4.68;;;;;;;6.06;100.00;101996.03;4884967;29;20120;-76
2022/02/23 08:45:41;;;;;;;37.90;5.15;;;;;;;5.99;100.00;101997.31;4886182;29;20048;-75
2022/02/23 08:48:07;;;;;;;31.52;4.78;;;;;;;5.89;100.00;101981.34;4884743;29;20072;-76
2022/02/23 08:50:34;;;;;;;43.33;5.55;;;;;;;5.93;100.00;102001.06;4884701;29;20104;-76
2022/02/23 08:52:59;;;;;;;28.23;4.30;;;;;;;5.85;100.00;102003.25;4886256;29;20048;-76
2022/02/23 08:55:25;;;;;;;32.88;4.75;;;;;;;5.86;100.00;101999.75;4887738;29;20025;-76
2022/02/23 08:57:51;;;;;;;36.63;5.03;;;;;;;6.01;100.00;101998.94;4885892;29;20029;-76
2022/02/23 09:00:17;;;;;;;36.75;4.95;;;;;;;5.99;100.00;102011.19;4854491;29;20036;-76
2022/02/23 09:02:42;;;;;;;35.45;3.97;;;;;;;6.08;100.00;102006.38;4885307;29;20122;-76
2022/02/23 09:05:08;;;;;;;30.23;4.13;;;;;;;6.12;100.00;101998.31;4883518;29;20037;-77
2022/02/23 09:07:34;;;;;;;34.33;4.55;;;;;;;6.09;100.00;102008.06;4881695;29;20511;-76
2022/02/23 09:09:59;;;;;;;42.35;5.43;;;;;;;6.10;100.00;102007.13;4852160;29;20045;-76
2022/02/23 09:12:25;;;;;;;36.72;5.50;;;;;;;6.04;100.00;101995.28;4884998;29;20051;-76
2022/02/23 09:14:51;;;;;;;34.92;4.88;;;;;;;6.07;100.00;102008.16;4885892;29;20037;-75
2022/02/23 09:17:17;;;;;;;38.03;5.20;;;;;;;6.19;100.00;102004.84;4882432;29;20040;-76
2022/02/23 09:19:42;;;;;;;36.58;4.95;;;;;;;6.34;100.00;102013.56;4864829;29;20471;-76
2022/02/23 09:22:08;;;;;;;34.13;4.68;;;;;;;6.44;100.00;102013.84;4880649;29;20113;-76
2022/02/23 09:24:34;;;;;;;35.97;5.22;;;;;;;6.56;100.00;102010.56;4881473;29;20102;-75
2022/02/23 09:27:02;;;;;;;29.52;4.93;;;;;;;6.51;100.00;102006.53;4867505;29;20041;-76
2022/02/23 09:29:29;;;;;;;30.17;4.80;;;;;;;6.65;100.00;102023.97;4867546;29;20041;-75
2022/02/23 09:31:55;;;;;;;34.55;4.63;;;;;;;6.49;100.00;102021.44;4885975;29;20034;-78
2022/02/23 09:34:23;;;;;;;36.83;4.80;;;;;;;6.29;100.00;102012.13;4883776;29;20069;-76
2022/02/23 09:36:50;;;;;;;37.63;5.72;;;;;;;6.32;100.00;102033.66;4885095;29;20076;-78
2022/02/23 09:39:16;;;;;;;37.15;5.07;;;;;;;6.38;100.00;102025.47;4863233;29;20658;-76
2022/02/23 09:41:42;;;;;;;32.63;5.00;;;;;;;6.47;100.00;102037.16;4866770;29;20121;-77
2022/02/23 09:44:10;;;;;;;41.60;4.85;;;;;;;6.43;100.00;102031.28;4870195;29;20037;-76
2022/02/23 09:46:35;;;;;;;42.17;4.25;;;;;;;6.55;100.00;102024.50;4871590;29;20041;-78
2022/02/23 09:49:03;;;;;;;30.27;4.43;;;;;;;6.57;100.00;102043.53;4886850;29;20532;-75
2022/02/23 09:51:28;;;;;;;37.70;5.00;;;;;;;6.37;100.00;102033.41;4896169;29;20036;-77
2022/02/23 09:53:55;;;;;;;34.45;4.53;;;;;;;6.27;100.00;102034.84;4880048;29;20045;-76
2022/02/23 09:56:22;;;;;;;38.50;4.72;;;;;;;6.65;100.00;102037.00;4873398;29;20520;-76
2022/02/23 09:58:49;;;;;;;41.05;4.68;;;;;;;6.69;100.00;102041.97;4901918;29;20061;-76
2022/02/23 10:01:15;;;;;;;39.38;4.90;;;;;;;6.45;100.00;102025.97;4880112;29;20076;-76
2022/02/23 10:03:44;;;;;;;33.72;4.25;;;;;;;6.67;100.00;102041.22;4887610;29;20116;-76
2022/02/23 10:06:27;;;;;;;30.08;4.22;;;;;;;6.95;100.00;102055.22;4886134;29;20037;-75
2022/02/23 10:09:08;;;;;;;44.72;5.45;;;;;;;7.21;100.00;102038.88;4899103;29;20041;-76
2022/02/23 10:11:35;;;;;;;30.85;4.90;;;;;;;7.36;100.00;102050.13;4859431;29;20045;-75
2022/02/23 10:14:03;;;;;;;27.05;4.30;;;;;;;7.51;98.86;102055.38;4881821;29;20073;-75
2022/02/23 10:16:39;;;;;;;33.58;4.50;;;;;;;7.36;100.00;102059.75;4877725;29;20469;-76
2022/02/23 10:19:19;;;;;;;32.50;4.13;;;;;;;7.34;97.52;102052.00;4880717;29;20045;-76
2022/02/23 10:21:56;;;;;;;33.78;4.07;;;;;;;7.30;98.23;102060.13;4872476;29;20060;-76
2022/02/23 10:24:33;;;;;;;34.45;4.55;;;;;;;7.42;96.05;102069.81;4870960;29;21015;-76
2022/02/23 10:27:14;;;;;;;37.92;4.07;;;;;;;7.70;98.19;102062.91;4895209;29;20044;-76
2022/02/23 10:29:46;;;;;;;31.60;4.43;;;;;;;7.68;99.90;102057.75;4880552;29;20041;-77
2022/02/23 10:32:14;;;;;;;30.33;3.95;;;;;;;7.92;96.29;102060.63;4871633;29;20048;-76
2022/02/23 10:34:44;;;;;;;26.40;3.92;;;;;;;8.02;95.53;102066.09;4884164;29;20049;-76
2022/02/23 10:37:11;;;;;;;30.45;4.60;;;;;;;8.05;95.03;102067.69;4888811;29;20105;-77
2022/02/23 10:39:43;;;;;;;23.58;4.03;;;;;;;7.83;93.85;102070.81;4888843;29;20032;-75
2022/02/23 10:42:12;;;;;;;33.45;4.70;;;;;;;7.90;94.28;102062.50;4887704;29;20037;-76
2022/02/23 10:44:42;;;;;;;31.52;3.72;;;;;;;8.10;95.00;102073.44;4882795;29;20037;-76
2022/02/23 10:47:19;;;;;;;29.23;3.85;;;;;;;8.22;92.10;102066.63;4884291;29;20039;-76
2022/02/23 10:49:59;;;;;;;25.85;4.32;;;;;;;8.39;88.75;102069.81;4876575;29;20115;-76
2022/02/23 10:52:28;;;;;;;25.67;3.22;;;;;;;8.18;86.95;102066.81;4872247;29;20052;-75
2022/02/23 10:55:13;;;;;;;22.70;4.05;;;;;;;8.38;89.37;102072.50;4879123;29;20036;-76
2022/02/23 10:57:44;;;;;;;22.48;3.10;;;;;;;8.39;88.68;102075.03;4855904;29;20097;-76
2022/02/23 11:00:25;;;;;;;18.23;3.05;;;;;;;8.47;86.82;102071.94;4868886;29;20040;-77
2022/02/23 11:02:51;;;;;;;20.80;3.63;;;;;;;8.44;86.83;102076.53;4870187;29;20033;-77
2022/02/23 11:05:23;;;;;;;21.58;2.67;;;;;;;8.45;87.01;102078.22;4885115;29;20029;-77
2022/02/23 11:07:50;;;;;;;21.55;3.38;;;;;;;8.30;86.99;102095.72;4884087;29;20037;-76
2022/02/23 11:10:15;;;;;;;21.60;3.17;;;;;;;8.00;86.17;102083.66;4875994;29;20040;-76
2022/02/23 11:12:46;;;;;;;25.35;3.03;;;;;;;7.78;84.17;102087.63;4853363;29;20057;-77
2022/02/23 11:15:14;;;;;;;21.88;2.97;;;;;;;7.55;85.08;102090.78;4856187;29;20112;-76
2022/02/23 11:17:40;;;;;;;17.23;2.47;;;;;;;7.44;86.08;102099.31;4886964;29;20068;-77
2022/02/23 11:20:07;;;;;;;24.05;3.05;;;;;;;7.34;86.10;102092.94;4887659;29;20104;-77
2022/02/23 11:22:32;;;;;;;16.63;3.20;;;;;;;7.19;87.31;102085.09;4885719;29;20041;-76